This is the latest recevied weather packets stored in our database for station/object NI4CE-10. If no packets are shown the sender has not sent any weather packets the latest 10 day(s).
| Time | Temp. | Humidity | Pressure | Rain* | Wind** | Luminosity | Snow |
|---|---|---|---|---|---|---|---|
| 1787956104 | 28.33° C | 100% | 1017.9 hPa | 0 mm | - | - | - |
| 1787955915 | 28.33° C | 100% | 1018.1 hPa | 0 mm | - | - | - |
| 1787955804 | 28.33° C | 100% | 1018.1 hPa | 0 mm | - | - | - |
| 1787955504 | 28.89° C | 100% | 1018.2 hPa | 0 mm | - | - | - |
| 1787955204 | 28.89° C | 100% | 1018.3 hPa | 0 mm | - | - | - |
| 1787954904 | 28.89° C | 100% | 1018.3 hPa | 0 mm | - | - | - |
| 1787954605 | 28.89° C | 100% | 1018.3 hPa | 0 mm | - | - | - |
| 1787954304 | 28.89° C | 100% | 1018.5 hPa | 0 mm | - | - | - |
| 1787954005 | 28.89° C | 100% | 1018.3 hPa | 0 mm | - | - | - |
| 1787953705 | 28.89° C | 100% | 1018.3 hPa | 0 mm | - | - | - |
| 1787953532 | 28.89° C | 100% | 1018.3 hPa | 0 mm | - | - | - |
| 1787953405 | 28.89° C | 100% | 1018.3 hPa | 0 mm | - | - | - |
| 1787953105 | 28.89° C | 100% | 1018.2 hPa | 0 mm | - | - | - |
| 1787952805 | 29.44° C | 100% | 1018.3 hPa | 0.25 mm | - | - | - |
| 1787952505 | 28.89° C | 100% | 1018.2 hPa | 0.25 mm | - | - | - |
| 1787952429 | 28.89° C | 100% | 1018.2 hPa | 0.25 mm | - | - | - |
| 1787952205 | 28.89° C | 100% | 1018.2 hPa | 0.25 mm | - | - | - |
| 1787952124 | 28.89° C | 100% | 1018.2 hPa | 0.25 mm | - | - | - |
| 1787951905 | 28.89° C | 100% | 1018.2 hPa | 0.25 mm | - | - | - |
| 1787951835 | 28.89° C | 100% | 1018.2 hPa | 0.25 mm | - | - | - |
| 1787951608 | 28.89° C | 100% | 1018.2 hPa | 0.25 mm | - | - | - |
| 1787951305 | 29.44° C | 100% | 1017.9 hPa | 0.25 mm | - | - | - |
| 1787951169 | 43.33° C | 100% | 1018.6 hPa | 0 mm | - | - | - |
| 1787951005 | 30° C | 100% | 1017.9 hPa | 0.25 mm | - | - | - |
| 1787950705 | 29.44° C | 100% | 1017.8 hPa | 0.25 mm | - | - | - |
* Rain latest hour (hover to see other rain measurements)
** Current wind speed in m/s (hover to see current wind gust speed)